Terminal Aerodrome Forecast
Issued by NWS

Home | Current Version | Previous Version | Text Only | Print | Product List | Glossary Off
Versions: 1 2 3 4 5 6 7 8 9 10 11 12 13 14 15 16 17 18 19

000
FTUS42 KMHX 200500
TAFOAJ
TAF
KOAJ 200540Z 2006/2106 00000KT P6SM SKC
     FM200900 00000KT 5SM BR SKC
     FM201300 19006KT P6SM SCT040
     FM210200 17003KT P6SM VCSH SCT025 BKN040
      AMD LTD TO CLD VIS AND WIND=

USA.gov is the U.S. government's official web portal to all federal, state and local government web resources and services.